Time;durP1;ratioP1;P1;durP2;ratioP2;P2;SDS_P1;SDS_P2;PMS_P1;PMS_P2;Temp;Humidity;BMP_temperature;BMP_pressure;BME280_temperature;BME280_humidity;BME280_pressure;Samples;Min_cycle;Max_cycle;Signal;HPM_P1;HPM_P2
2023/05/19 00:01:17;;;;;;;6.13;4.20;;;;;;;14.99;78.09;102146.03;4969293;28;20568;-45
2023/05/19 00:03:53;;;;;;;7.07;3.53;;;;;;;15.00;78.26;102146.84;4969614;28;20046;-45
2023/05/19 00:06:25;;;;;;;7.30;3.35;;;;;;;14.98;78.60;102144.41;4969599;28;20050;-44
2023/05/19 00:08:57;;;;;;;4.85;3.40;;;;;;;15.02;78.76;102158.47;4968486;28;20061;-45
2023/05/19 00:11:25;;;;;;;5.63;3.60;;;;;;;15.04;78.90;102172.88;4969782;28;20050;-45
2023/05/19 00:13:53;;;;;;;6.10;2.88;;;;;;;15.08;79.04;102157.94;4969794;28;20047;-46
2023/05/19 00:16:21;;;;;;;5.47;3.35;;;;;;;15.15;78.95;102163.78;4973162;28;20559;-47
2023/05/19 00:18:48;;;;;;;9.50;4.13;;;;;;;15.18;78.90;102163.09;4955822;28;20067;-44
2023/05/19 00:21:15;;;;;;;8.85;5.28;;;;;;;15.19;78.96;102159.16;4973269;28;20066;-45
2023/05/19 00:23:42;;;;;;;5.18;3.80;;;;;;;15.22;79.04;102168.81;4973420;28;20042;-50
2023/05/19 00:26:09;;;;;;;5.78;3.58;;;;;;;15.24;79.32;102163.69;4972213;28;20050;-44
2023/05/19 00:28:36;;;;;;;9.07;4.15;;;;;;;15.24;79.27;102172.06;4971719;28;20078;-49
2023/05/19 00:31:06;;;;;;;6.45;4.80;;;;;;;15.24;79.50;102164.53;4972529;28;20050;-50
2023/05/19 00:33:33;;;;;;;7.10;3.72;;;;;;;15.25;79.78;102166.13;4972975;28;20133;-46
2023/05/19 00:36:04;;;;;;;7.25;3.75;;;;;;;15.25;80.01;102163.34;4973070;28;20051;-46
2023/05/19 00:38:32;;;;;;;5.70;3.30;;;;;;;15.23;80.05;102176.81;4972710;28;20058;-49
2023/05/19 00:41:00;;;;;;;4.07;3.20;;;;;;;15.21;80.31;102179.16;4972560;28;20485;-50
2023/05/19 00:43:29;;;;;;;6.75;3.83;;;;;;;15.20;80.52;102188.66;4972551;28;20503;-46
2023/05/19 00:45:56;;;;;;;6.75;3.10;;;;;;;15.16;80.68;102179.38;4973075;28;20402;-45
2023/05/19 00:48:24;;;;;;;6.53;3.72;;;;;;;15.10;80.68;102183.50;4972788;28;20042;-46
2023/05/19 00:51:00;;;;;;;7.40;3.72;;;;;;;15.03;81.08;102188.81;4972756;28;20151;-46
2023/05/19 00:53:28;;;;;;;7.57;3.92;;;;;;;14.97;81.33;102190.19;4972574;28;20050;-45
2023/05/19 00:55:55;;;;;;;6.00;3.80;;;;;;;14.95;81.32;102186.09;4972383;28;20046;-46
2023/05/19 00:58:24;;;;;;;9.18;3.92;;;;;;;14.89;81.69;102193.84;4967650;28;20500;-46
2023/05/19 01:00:51;;;;;;;6.78;3.75;;;;;;;14.83;81.87;102200.78;4967050;28;20047;-44
2023/05/19 01:03:19;;;;;;;7.40;3.65;;;;;;;14.78;81.84;102203.75;4972312;28;20042;-45
2023/05/19 01:05:52;;;;;;;8.57;3.72;;;;;;;14.70;81.80;102207.41;4972011;28;20055;-46
2023/05/19 01:08:19;;;;;;;9.25;3.97;;;;;;;14.59;81.60;102206.16;4972499;28;20046;-50
2023/05/19 01:10:47;;;;;;;16.92;4.53;;;;;;;14.49;81.75;102195.41;4970938;28;20059;-45
2023/05/19 01:13:14;;;;;;;15.57;3.95;;;;;;;14.45;81.83;102209.22;4972172;28;20149;-45
2023/05/19 01:15:56;;;;;;;16.65;4.25;;;;;;;14.39;81.85;102212.53;4970363;28;20050;-46
2023/05/19 01:18:37;;;;;;;20.42;4.25;;;;;;;14.35;81.61;102206.00;4970786;28;20051;-45
2023/05/19 01:21:35;;;;;;;11.02;3.50;;;;;;;14.33;81.43;102209.09;4972310;28;20098;-44
2023/05/19 01:24:21;;;;;;;13.13;3.72;;;;;;;14.36;81.02;102197.28;4972023;28;20403;-45
2023/05/19 01:27:00;;;;;;;11.80;5.05;;;;;;;14.35;80.70;102206.00;4971074;28;20062;-46
2023/05/19 01:29:38;;;;;;;14.60;3.38;;;;;;;14.33;80.50;102192.38;4970806;28;20043;-45
2023/05/19 01:32:06;;;;;;;12.63;3.67;;;;;;;14.33;80.46;102194.34;4970828;28;20049;-46
2023/05/19 01:34:38;;;;;;;13.90;3.67;;;;;;;14.35;80.22;102189.28;4971464;28;20085;-48
2023/05/19 01:37:06;;;;;;;17.33;4.10;;;;;;;14.29;79.95;102180.25;4958885;28;20493;-48
2023/05/19 01:39:35;;;;;;;22.02;6.18;;;;;;;14.27;79.80;102176.19;4971585;28;20055;-45
2023/05/19 01:42:03;;;;;;;18.65;5.25;;;;;;;14.26;79.40;102180.94;4954723;28;20150;-45
2023/05/19 01:44:32;;;;;;;27.60;5.47;;;;;;;14.25;79.00;102178.47;4954355;28;20061;-46
2023/05/19 01:46:59;;;;;;;19.70;5.82;;;;;;;14.19;78.59;102174.25;4971623;28;20074;-46
2023/05/19 01:49:26;;;;;;;23.05;7.35;;;;;;;14.08;78.32;102182.16;4970679;28;20102;-50
2023/05/19 01:51:53;;;;;;;15.93;3.97;;;;;;;14.03;78.46;102176.78;4971388;28;20076;-45
2023/05/19 01:54:20;;;;;;;22.98;5.43;;;;;;;14.03;78.36;102182.34;4971630;28;20552;-45
2023/05/19 01:56:58;;;;;;;22.30;4.70;;;;;;;14.03;78.34;102176.78;4971370;28;20039;-45
2023/05/19 01:59:37;;;;;;;18.77;6.78;;;;;;;13.99;78.32;102187.75;4952722;28;20544;-46
2023/05/19 02:02:25;;;;;;;20.02;5.80;;;;;;;13.98;78.18;102186.13;4971198;28;20078;-45
2023/05/19 02:04:59;;;;;;;23.05;5.47;;;;;;;13.91;78.11;102183.03;4971107;28;20105;-45
2023/05/19 02:07:55;;;;;;;20.00;4.88;;;;;;;13.86;78.34;102187.97;4970279;28;20077;-45
2023/05/19 02:10:29;;;;;;;21.60;5.15;;;;;;;13.81;78.06;102182.56;4971110;28;20082;-50
2023/05/19 02:13:03;;;;;;;25.52;6.70;;;;;;;13.78;78.25;102186.84;4971334;28;20086;-45
2023/05/19 02:15:37;;;;;;;30.55;7.50;;;;;;;13.74;78.30;102190.63;4970809;28;20042;-45
2023/05/19 02:18:08;;;;;;;33.38;5.30;;;;;;;13.71;78.13;102186.56;4971225;28;20054;-45
2023/05/19 02:20:35;;;;;;;18.08;6.10;;;;;;;13.69;78.02;102196.34;4971121;28;20042;-45
2023/05/19 02:23:01;;;;;;;26.50;5.88;;;;;;;13.68;77.79;102197.50;4970655;28;20071;-46
2023/05/19 02:25:28;;;;;;;24.73;6.07;;;;;;;13.63;77.98;102195.72;4968820;28;20127;-46
2023/05/19 02:27:57;;;;;;;29.00;6.70;;;;;;;13.55;77.96;102199.34;4970021;28;20042;-46
2023/05/19 02:30:24;;;;;;;25.50;7.03;;;;;;;13.49;77.82;102203.44;4969827;28;20441;-47
2023/05/19 02:32:52;;;;;;;27.20;6.15;;;;;;;13.49;77.91;102200.66;4969696;28;20047;-48
2023/05/19 02:35:20;;;;;;;20.50;6.35;;;;;;;13.49;77.77;102200.66;4970476;28;20396;-47
2023/05/19 02:37:50;;;;;;;22.98;5.65;;;;;;;13.49;77.85;102200.66;4970418;28;20054;-46
2023/05/19 02:40:17;;;;;;;31.50;6.63;;;;;;;13.50;77.82;102199.53;4969703;28;20050;-45
2023/05/19 02:42:44;;;;;;;39.42;7.78;;;;;;;13.51;78.00;102203.09;4970544;28;20043;-49
2023/05/19 02:45:11;;;;;;;20.08;5.65;;;;;;;13.49;77.80;102199.84;4968436;28;20054;-45
2023/05/19 02:47:37;;;;;;;30.10;6.15;;;;;;;13.45;78.00;102208.00;4970528;28;20509;-45
2023/05/19 02:50:05;;;;;;;28.30;6.88;;;;;;;13.43;77.75;102202.78;4970595;28;20078;-45
2023/05/19 02:52:32;;;;;;;28.88;7.18;;;;;;;13.41;77.75;102204.28;4970087;28;20235;-48
2023/05/19 02:54:59;;;;;;;27.50;6.18;;;;;;;13.35;77.78;102211.97;4970583;28;20763;-45
2023/05/19 02:57:26;;;;;;;22.40;6.47;;;;;;;13.30;77.68;102202.97;4967749;28;20121;-49
2023/05/19 02:59:52;;;;;;;27.73;7.07;;;;;;;13.23;77.89;102213.78;4970389;28;20035;-45
2023/05/19 03:02:19;;;;;;;22.33;5.25;;;;;;;13.16;77.84;102213.44;5018166;22;20062;-44
2023/05/19 03:04:46;;;;;;;24.58;6.38;;;;;;;13.04;77.88;102204.91;4989757;28;20042;-45
2023/05/19 03:07:14;;;;;;;21.65;6.63;;;;;;;12.98;78.08;102208.97;4989335;28;20050;-48
2023/05/19 03:09:41;;;;;;;22.55;6.90;;;;;;;12.95;77.97;102212.41;4989548;28;20042;-45
2023/05/19 03:12:08;;;;;;;19.80;6.32;;;;;;;12.93;78.03;102209.13;4989462;28;20046;-44
2023/05/19 03:14:37;;;;;;;35.60;9.10;;;;;;;12.89;77.93;102214.53;4989375;28;20488;-44
2023/05/19 03:17:06;;;;;;;26.90;6.22;;;;;;;12.84;77.93;102218.28;4989457;28;20054;-44
2023/05/19 03:19:33;;;;;;;31.35;6.43;;;;;;;12.79;78.08;102220.41;4989464;28;20065;-44
2023/05/19 03:22:00;;;;;;;30.05;7.03;;;;;;;12.75;77.95;102213.88;4989378;28;20042;-46
2023/05/19 03:24:27;;;;;;;36.10;7.22;;;;;;;12.69;78.07;102204.84;4989346;28;20100;-44
2023/05/19 03:26:54;;;;;;;30.17;7.45;;;;;;;12.65;78.02;102217.78;4989506;28;20054;-44
2023/05/19 03:29:21;;;;;;;24.00;5.50;;;;;;;12.63;78.11;102211.69;4970310;28;20035;-44
2023/05/19 03:31:48;;;;;;;29.42;5.72;;;;;;;12.61;77.93;102202.88;4988395;28;20050;-49
2023/05/19 03:34:14;;;;;;;26.55;6.43;;;;;;;12.56;78.28;102208.59;4970702;28;20054;-45
2023/05/19 03:36:41;;;;;;;28.83;7.07;;;;;;;12.49;78.05;102213.81;4986365;28;20042;-45
2023/05/19 03:39:08;;;;;;;32.60;6.78;;;;;;;12.46;78.13;102220.00;4989342;28;20716;-44
2023/05/19 03:41:35;;;;;;;17.65;5.40;;;;;;;12.43;78.21;102226.19;4987961;28;20038;-47
2023/05/19 03:44:02;;;;;;;29.60;7.00;;;;;;;12.41;78.23;102217.38;4989104;28;20057;-49
2023/05/19 03:46:29;;;;;;;28.00;9.07;;;;;;;12.39;78.40;102216.06;4989078;28;20488;-44
2023/05/19 03:48:57;;;;;;;18.15;5.40;;;;;;;12.39;78.25;102222.41;4964659;28;20409;-44
2023/05/19 03:51:23;;;;;;;33.15;7.95;;;;;;;12.38;78.36;102223.56;4991596;28;20096;-51
2023/05/19 03:53:51;;;;;;;22.50;6.85;;;;;;;12.36;78.13;102228.63;4993505;28;20130;-44
2023/05/19 03:56:19;;;;;;;33.08;6.57;;;;;;;12.34;78.28;102227.31;4991864;28;20037;-46
2023/05/19 03:58:47;;;;;;;22.42;5.43;;;;;;;12.30;78.37;102229.91;4991288;28;20066;-47
2023/05/19 04:01:14;;;;;;;22.63;6.10;;;;;;;12.26;78.57;102234.44;4992765;28;20062;-45
2023/05/19 04:03:40;;;;;;;33.13;7.25;;;;;;;12.27;78.63;102235.28;4992978;28;20870;-51
2023/05/19 04:06:07;;;;;;;27.17;6.18;;;;;;;12.25;78.55;102227.28;4992718;28;20100;-47
2023/05/19 04:08:35;;;;;;;26.70;7.97;;;;;;;12.25;78.34;102241.16;4975422;28;20517;-49
2023/05/19 04:11:01;;;;;;;34.30;6.72;;;;;;;12.26;78.47;102234.44;4992789;28;20038;-45
2023/05/19 04:13:28;;;;;;;22.65;6.25;;;;;;;12.25;78.23;102240.34;4992795;28;20050;-49
2023/05/19 04:15:55;;;;;;;26.58;6.30;;;;;;;12.23;78.32;102246.22;4992887;28;20053;-46
2023/05/19 04:18:22;;;;;;;26.65;5.88;;;;;;;12.19;78.45;102250.75;4993158;28;20046;-47
2023/05/19 04:20:48;;;;;;;17.38;5.78;;;;;;;12.17;78.51;102251.09;4980258;28;20137;-49
2023/05/19 04:23:15;;;;;;;23.50;6.03;;;;;;;12.16;78.45;102251.41;4992817;28;20174;-44
2023/05/19 04:25:42;;;;;;;28.85;6.72;;;;;;;12.17;78.50;102264.97;4992585;28;20132;-45
2023/05/19 04:28:09;;;;;;;32.55;6.72;;;;;;;12.16;78.44;102256.94;4973539;28;20054;-45
2023/05/19 04:30:37;;;;;;;23.75;7.93;;;;;;;12.13;78.68;102257.59;4992277;28;20660;-44
2023/05/19 04:33:04;;;;;;;25.85;5.88;;;;;;;12.12;78.67;102259.56;4992455;28;20142;-45
2023/05/19 04:35:31;;;;;;;27.33;6.13;;;;;;;12.06;78.77;102269.16;4984192;28;20050;-45
2023/05/19 04:37:57;;;;;;;23.35;6.38;;;;;;;12.05;78.78;102272.25;4992517;28;20473;-44
2023/05/19 04:40:24;;;;;;;28.58;6.40;;;;;;;12.06;78.83;102268.34;4972897;28;20194;-44
2023/05/19 04:42:54;;;;;;;25.80;5.53;;;;;;;12.03;78.98;102277.28;4991460;28;20054;-44
2023/05/19 04:45:22;;;;;;;26.73;9.20;;;;;;;12.06;78.96;102274.72;4974115;28;20356;-52
2023/05/19 04:47:48;;;;;;;26.42;7.38;;;;;;;12.07;78.70;102281.09;4991998;28;20054;-44
2023/05/19 04:50:15;;;;;;;31.08;6.28;;;;;;;12.06;78.76;102277.50;4992413;28;20133;-45
2023/05/19 04:52:46;;;;;;;20.38;5.78;;;;;;;12.07;78.88;102292.19;4991372;28;20483;-44
2023/05/19 04:55:12;;;;;;;24.58;7.13;;;;;;;12.04;79.00;102290.88;4992004;28;20451;-46
2023/05/19 04:57:39;;;;;;;23.38;6.35;;;;;;;12.04;78.87;102281.72;4991487;28;20053;-45
2023/05/19 05:00:11;;;;;;;28.40;6.60;;;;;;;12.04;79.03;102276.16;4992016;28;20452;-44
2023/05/19 05:02:37;;;;;;;23.70;5.87;;;;;;;12.07;79.01;102275.53;4991047;28;20058;-44
2023/05/19 05:05:05;;;;;;;29.88;6.25;;;;;;;12.09;79.16;102278.81;4974314;28;20394;-47
2023/05/19 05:07:31;;;;;;;24.02;6.07;;;;;;;12.10;79.04;102285.97;4991484;28;20050;-47
2023/05/19 05:09:58;;;;;;;20.33;5.47;;;;;;;12.11;79.06;102291.22;4989846;28;20060;-44
2023/05/19 05:12:25;;;;;;;21.65;6.15;;;;;;;12.14;79.03;102292.56;4991991;28;20046;-48
2023/05/19 05:14:52;;;;;;;31.90;7.20;;;;;;;12.16;79.03;102288.31;4991270;28;20031;-44
2023/05/19 05:17:20;;;;;;;24.20;5.63;;;;;;;12.17;78.88;102283.59;4991345;28;20392;-44
2023/05/19 05:19:47;;;;;;;23.95;5.40;;;;;;;12.20;78.95;102285.72;4973028;28;20470;-51
2023/05/19 05:22:14;;;;;;;26.70;6.03;;;;;;;12.21;78.88;102292.91;4991309;28;20051;-44
2023/05/19 05:24:41;;;;;;;30.65;6.00;;;;;;;12.23;78.90;102301.75;4991489;28;20112;-44
2023/05/19 05:27:08;;;;;;;25.30;6.45;;;;;;;12.22;78.88;102302.88;4991424;28;20046;-44
2023/05/19 05:29:36;;;;;;;27.45;8.20;;;;;;;12.28;79.08;102284.13;4989831;28;20049;-44
2023/05/19 05:32:03;;;;;;;31.98;9.63;;;;;;;12.37;79.00;102283.03;4991036;28;20109;-47
2023/05/19 05:34:30;;;;;;;27.73;7.00;;;;;;;12.37;78.88;102280.25;4988218;28;20448;-46
2023/05/19 05:36:57;;;;;;;31.83;8.52;;;;;;;12.37;78.83;102291.34;4990157;28;20074;-44
2023/05/19 05:39:24;;;;;;;23.50;5.65;;;;;;;12.37;78.90;102296.91;4989976;28;20108;-44
2023/05/19 05:41:51;;;;;;;36.97;8.73;;;;;;;12.37;78.95;102296.91;4990528;28;20502;-46
2023/05/19 05:44:17;;;;;;;30.50;7.95;;;;;;;12.44;79.02;102299.25;4973802;28;20057;-44
2023/05/19 05:46:45;;;;;;;26.85;7.40;;;;;;;12.51;78.97;102289.31;4990702;28;20550;-44
2023/05/19 05:49:12;;;;;;;21.42;5.07;;;;;;;12.48;78.96;102301.06;4989809;28;20072;-44
2023/05/19 05:51:39;;;;;;;20.15;5.72;;;;;;;12.51;78.85;102302.38;4990956;28;20050;-44
2023/05/19 05:54:11;;;;;;;22.25;5.28;;;;;;;12.52;78.76;102287.34;4990934;28;20515;-44
2023/05/19 05:56:39;;;;;;;25.33;5.72;;;;;;;12.50;78.75;102289.59;4990163;28;20046;-44
2023/05/19 05:59:06;;;;;;;25.83;6.65;;;;;;;12.51;78.59;102294.88;4989453;28;20046;-44
2023/05/19 06:01:34;;;;;;;25.77;7.25;;;;;;;12.56;78.71;102294.72;4990523;28;20051;-44
2023/05/19 06:04:01;;;;;;;24.10;6.05;;;;;;;12.55;78.64;102292.28;4990142;28;20128;-47
2023/05/19 06:06:28;;;;;;;30.63;9.02;;;;;;;12.59;78.82;102287.69;4990688;28;20042;-44
2023/05/19 06:08:55;;;;;;;26.73;6.28;;;;;;;12.66;78.72;102286.09;4989686;28;20054;-44
2023/05/19 06:11:22;;;;;;;39.85;7.30;;;;;;;12.70;78.68;102284.31;4990208;28;20097;-44
2023/05/19 06:13:48;;;;;;;28.23;6.40;;;;;;;12.68;78.52;102286.56;4972369;28;21021;-45
2023/05/19 06:16:15;;;;;;;23.98;6.47;;;;;;;12.74;78.58;102284.47;4990193;28;20034;-44
2023/05/19 06:18:42;;;;;;;29.83;7.00;;;;;;;12.80;78.15;102294.31;4972118;28;20679;-46
2023/05/19 06:21:09;;;;;;;29.98;7.63;;;;;;;12.84;78.09;102301.66;4990107;28;20581;-48
2023/05/19 06:23:36;;;;;;;31.42;7.60;;;;;;;12.88;78.18;102296.28;4972689;28;20432;-45
2023/05/19 06:26:02;;;;;;;29.75;6.25;;;;;;;12.95;77.86;102290.25;4990186;28;20566;-44
2023/05/19 06:28:30;;;;;;;26.13;6.00;;;;;;;13.03;78.00;102297.78;4989500;28;20042;-44
2023/05/19 06:30:57;;;;;;;27.60;6.78;;;;;;;13.02;77.69;102297.00;4989338;28;20053;-44
2023/05/19 06:33:24;;;;;;;27.58;6.90;;;;;;;13.02;77.64;102280.31;4990491;28;20042;-44
2023/05/19 06:35:54;;;;;;;31.92;7.32;;;;;;;12.97;77.54;102282.41;4989100;28;20065;-44
2023/05/19 06:38:21;;;;;;;19.75;5.68;;;;;;;12.93;77.78;102286.97;4972028;28;20075;-46
2023/05/19 06:40:48;;;;;;;23.08;5.60;;;;;;;12.92;77.89;102286.16;4989768;28;20404;-44
2023/05/19 06:43:15;;;;;;;26.58;5.32;;;;;;;12.89;77.58;102278.47;4972477;28;20073;-44
2023/05/19 06:45:41;;;;;;;36.13;8.75;;;;;;;12.87;77.70;102277.16;4986400;28;20499;-49
2023/05/19 06:48:08;;;;;;;23.17;5.97;;;;;;;12.89;77.74;102286.81;4989858;28;20113;-44
2023/05/19 06:50:35;;;;;;;24.40;6.07;;;;;;;12.86;77.52;102286.63;4989861;28;20141;-50
2023/05/19 06:53:02;;;;;;;30.17;6.80;;;;;;;12.81;77.65;102291.19;4989563;28;20046;-44
2023/05/19 06:55:28;;;;;;;32.20;7.78;;;;;;;12.83;77.78;102288.94;4989464;28;20847;-44
2023/05/19 06:57:55;;;;;;;26.63;5.75;;;;;;;12.83;78.07;102288.94;4989427;28;20035;-45
2023/05/19 07:00:22;;;;;;;27.42;5.80;;;;;;;12.80;77.75;102291.53;4972503;28;20050;-44
2023/05/19 07:02:56;;;;;;;36.78;7.47;;;;;;;12.87;77.83;102291.06;4989299;28;20360;-47
2023/05/19 07:05:23;;;;;;;22.65;6.00;;;;;;;12.93;77.76;102298.91;4989747;28;20050;-44
2023/05/19 07:07:50;;;;;;;28.70;5.57;;;;;;;13.03;77.64;102303.34;4984920;28;20056;-45
2023/05/19 07:10:17;;;;;;;27.90;7.13;;;;;;;13.09;77.65;102307.66;4988211;28;20042;-44
2023/05/19 07:12:51;;;;;;;24.38;6.97;;;;;;;13.13;77.58;102297.53;4989307;28;20046;-46
2023/05/19 07:15:18;;;;;;;32.78;5.80;;;;;;;13.20;77.46;102308.97;4991064;28;20057;-46
2023/05/19 07:17:45;;;;;;;24.67;6.25;;;;;;;13.24;77.51;102310.78;4988792;28;20065;-49
2023/05/19 07:20:12;;;;;;;34.63;11.57;;;;;;;13.22;77.58;102318.63;4989583;28;20052;-45
2023/05/19 07:22:39;;;;;;;32.00;7.97;;;;;;;13.22;77.97;102324.19;4989524;28;20508;-45
2023/05/19 07:25:06;;;;;;;24.35;6.57;;;;;;;13.26;77.93;102329.94;4988495;28;20046;-45
2023/05/19 07:27:33;;;;;;;29.10;6.85;;;;;;;13.31;77.82;102333.38;4989153;28;20042;-45
2023/05/19 07:30:01;;;;;;;32.28;8.70;;;;;;;13.33;77.90;102335.84;4988598;28;20046;-46
2023/05/19 07:32:27;;;;;;;34.25;7.32;;;;;;;13.38;78.07;102341.22;4989249;28;20050;-49
2023/05/19 07:34:54;;;;;;;32.95;6.70;;;;;;;13.47;77.95;102332.91;4984540;28;20045;-47
2023/05/19 07:37:21;;;;;;;30.20;6.03;;;;;;;13.53;77.85;102337.19;4989378;28;20105;-44
2023/05/19 07:39:48;;;;;;;24.17;6.43;;;;;;;13.59;77.95;102344.19;4987404;28;20423;-46
2023/05/19 07:42:18;;;;;;;30.25;6.40;;;;;;;13.57;77.69;102336.19;4988485;28;20070;-45
2023/05/19 07:44:45;;;;;;;33.20;8.38;;;;;;;13.57;77.84;102333.41;4988813;28;20050;-50
2023/05/19 07:47:11;;;;;;;27.92;8.65;;;;;;;13.66;77.86;102331.41;4989158;28;20053;-45
2023/05/19 07:49:38;;;;;;;27.08;6.18;;;;;;;13.75;77.57;102332.25;4988866;28;20455;-45
2023/05/19 07:52:05;;;;;;;23.52;6.45;;;;;;;13.77;77.48;102326.34;4988118;28;20146;-47
2023/05/19 07:54:34;;;;;;;26.52;6.38;;;;;;;13.88;77.38;102328.47;4988823;28;20077;-46
2023/05/19 07:57:01;;;;;;;23.15;5.93;;;;;;;14.00;77.34;102330.59;4989091;28;20048;-46
2023/05/19 07:59:28;;;;;;;28.05;7.60;;;;;;;14.09;77.15;102333.34;4987974;28;20444;-46
2023/05/19 08:01:55;;;;;;;25.23;7.32;;;;;;;14.20;76.91;102343.00;4992189;28;20451;-46
2023/05/19 08:04:22;;;;;;;26.20;6.57;;;;;;;14.25;76.83;102331.69;4990468;28;20054;-46
2023/05/19 08:06:48;;;;;;;28.13;6.18;;;;;;;14.41;76.76;102335.59;4988091;28;20038;-46
2023/05/19 08:09:15;;;;;;;26.98;6.55;;;;;;;14.53;76.31;102338.53;4986835;28;20504;-49
2023/05/19 08:11:43;;;;;;;29.92;7.00;;;;;;;14.61;76.16;102332.09;4987972;28;20065;-45
2023/05/19 08:14:10;;;;;;;25.08;8.55;;;;;;;14.71;76.01;102337.31;4969881;28;20143;-46
2023/05/19 08:16:37;;;;;;;25.30;6.80;;;;;;;14.76;75.63;102348.28;4967198;28;20054;-49
2023/05/19 08:19:06;;;;;;;32.72;5.85;;;;;;;14.72;75.42;102355.66;4987186;28;20507;-46
2023/05/19 08:21:33;;;;;;;25.13;6.32;;;;;;;14.75;75.45;102356.94;4987949;28;20050;-46
2023/05/19 08:24:00;;;;;;;21.05;6.82;;;;;;;14.79;75.43;102360.72;4988647;28;20046;-46
2023/05/19 08:26:27;;;;;;;26.00;6.88;;;;;;;14.78;75.39;102359.91;4988488;28;20566;-48
2023/05/19 08:28:54;;;;;;;30.55;5.97;;;;;;;14.75;75.33;102360.56;4988554;28;20050;-47
2023/05/19 08:31:21;;;;;;;22.55;5.22;;;;;;;14.71;75.03;102370.75;4988158;28;20047;-46
2023/05/19 08:33:48;;;;;;;31.40;6.95;;;;;;;14.69;75.04;102366.66;4988350;28;20054;-50
2023/05/19 08:36:15;;;;;;;23.73;7.50;;;;;;;14.68;74.77;102365.84;4986273;28;20054;-45
2023/05/19 08:38:43;;;;;;;24.15;6.75;;;;;;;14.66;74.69;102357.00;4991628;28;20129;-45
2023/05/19 08:41:10;;;;;;;25.13;5.53;;;;;;;14.63;74.53;102366.03;4990890;28;20373;-45
2023/05/19 08:43:38;;;;;;;25.08;7.65;;;;;;;14.62;74.34;102361.59;4992104;28;20434;-46
2023/05/19 08:46:06;;;;;;;26.13;5.97;;;;;;;14.60;74.38;102359.16;4992027;28;20061;-45
2023/05/19 08:48:35;;;;;;;28.77;6.20;;;;;;;14.59;74.38;102359.47;4973667;28;20046;-47
2023/05/19 08:51:13;;;;;;;20.30;5.55;;;;;;;14.62;74.36;102356.03;4992264;28;20126;-45
2023/05/19 08:53:47;;;;;;;25.10;7.15;;;;;;;14.66;74.23;102347.81;4974589;28;20388;-49
2023/05/19 08:56:18;;;;;;;26.45;6.05;;;;;;;14.74;74.27;102352.53;4991584;28;20068;-47
2023/05/19 08:58:47;;;;;;;25.17;5.78;;;;;;;14.81;74.16;102359.22;4991341;28;20145;-46
2023/05/19 09:01:18;;;;;;;23.52;5.63;;;;;;;14.84;74.00;102344.63;4991515;28;20105;-45
2023/05/19 09:03:48;;;;;;;24.13;6.00;;;;;;;14.85;73.88;102348.25;4998591;28;20579;-47
2023/05/19 09:06:16;;;;;;;27.27;6.00;;;;;;;14.92;73.77;102345.72;4979408;28;20050;-45
2023/05/19 09:08:43;;;;;;;19.63;5.38;;;;;;;14.99;73.52;102346.84;4991150;28;20040;-45
2023/05/19 09:11:10;;;;;;;21.23;5.63;;;;;;;15.07;73.39;102354.34;4990623;28;20439;-46
2023/05/19 09:13:37;;;;;;;18.60;5.40;;;;;;;15.13;73.41;102352.19;4991379;28;20065;-46
2023/05/19 09:16:05;;;;;;;23.67;6.22;;;;;;;15.18;73.22;102344.44;4991749;28;20078;-48
2023/05/19 09:18:32;;;;;;;23.52;7.10;;;;;;;15.20;73.12;102344.09;4990447;28;20449;-45
2023/05/19 09:21:01;;;;;;;21.70;6.68;;;;;;;15.26;73.07;102342.75;4989828;28;20042;-45
2023/05/19 09:23:33;;;;;;;19.85;5.68;;;;;;;15.25;72.94;102339.13;4991487;28;20129;-45
2023/05/19 09:26:07;;;;;;;23.15;6.85;;;;;;;15.30;72.76;102334.53;4991586;28;20042;-45
2023/05/19 09:28:36;;;;;;;19.73;6.25;;;;;;;15.35;72.77;102323.97;4990988;28;20058;-47
2023/05/19 09:31:05;;;;;;;23.98;4.75;;;;;;;15.46;72.63;102338.38;4990550;28;20137;-45
2023/05/19 09:33:33;;;;;;;20.83;5.88;;;;;;;15.58;72.42;102339.25;4990824;28;20047;-45
2023/05/19 09:36:02;;;;;;;19.73;4.25;;;;;;;15.67;72.14;102336.41;4986517;28;20046;-48
2023/05/19 09:38:28;;;;;;;24.88;5.45;;;;;;;15.74;71.75;102336.66;4991220;28;20046;-50
2023/05/19 09:40:57;;;;;;;21.23;5.03;;;;;;;15.77;71.35;102330.41;4989068;28;20065;-48
2023/05/19 09:43:32;;;;;;;17.98;5.05;;;;;;;15.83;71.27;102334.63;4990849;28;20053;-46
2023/05/19 09:46:03;;;;;;;23.08;5.70;;;;;;;15.98;71.22;102325.59;4990895;28;20521;-46
2023/05/19 09:48:29;;;;;;;14.93;4.97;;;;;;;16.23;70.90;102338.47;4978124;28;20035;-48
2023/05/19 09:50:57;;;;;;;28.02;7.32;;;;;;;16.47;70.16;102336.94;4990009;28;20053;-46
2023/05/19 09:53:25;;;;;;;19.02;5.45;;;;;;;16.62;69.75;102339.06;4991105;28;20135;-45
2023/05/19 09:55:58;;;;;;;13.90;5.05;;;;;;;16.75;69.45;102354.69;4973591;28;20112;-45
2023/05/19 09:58:25;;;;;;;22.48;6.63;;;;;;;16.83;69.38;102340.63;4990672;28;20053;-43
2023/05/19 10:00:58;;;;;;;21.92;5.13;;;;;;;16.90;69.12;102342.81;4990058;28;20129;-43
2023/05/19 10:03:25;;;;;;;20.33;5.38;;;;;;;16.97;68.81;102340.28;4995359;28;20496;-43
2023/05/19 10:05:53;;;;;;;16.27;5.78;;;;;;;17.05;68.40;102339.31;4990359;28;20047;-45
2023/05/19 10:08:25;;;;;;;22.75;6.22;;;;;;;17.12;68.36;102347.13;4973843;28;20097;-44
2023/05/19 10:10:53;;;;;;;25.55;7.60;;;;;;;17.07;68.11;102333.38;4973131;28;20049;-46
2023/05/19 10:13:21;;;;;;;19.67;6.25;;;;;;;17.02;68.13;102343.63;4990590;28;20121;-45
2023/05/19 10:15:49;;;;;;;20.75;5.13;;;;;;;16.97;67.88;102340.28;4973186;28;20092;-44
2023/05/19 10:18:26;;;;;;;21.25;5.55;;;;;;;16.95;67.63;102337.81;4990535;28;20046;-45
2023/05/19 10:20:54;;;;;;;21.90;6.97;;;;;;;17.02;67.55;102340.03;4988703;28;20076;-44
2023/05/19 10:23:22;;;;;;;18.65;4.97;;;;;;;17.11;67.42;102343.50;4990544;28;20050;-44
2023/05/19 10:25:53;;;;;;;21.48;5.57;;;;;;;17.22;67.11;102346.66;4990216;28;20084;-45
2023/05/19 10:28:24;;;;;;;16.83;4.60;;;;;;;17.30;66.84;102342.91;4990144;28;20396;-44
2023/05/19 10:30:55;;;;;;;16.23;5.63;;;;;;;17.42;66.74;102340.88;4989639;28;20038;-44
2023/05/19 10:33:37;;;;;;;13.67;5.47;;;;;;;17.57;66.58;102342.19;4989270;28;20373;-44
2023/05/19 10:36:23;;;;;;;16.75;4.90;;;;;;;17.67;66.30;102346.47;4986138;28;20508;-44
2023/05/19 10:39:05;;;;;;;26.33;5.90;;;;;;;17.74;65.94;102336.28;4978567;28;20050;-45
2023/05/19 10:41:50;;;;;;;18.25;5.28;;;;;;;17.73;65.81;102337.47;4988555;28;20447;-45
2023/05/19 10:44:33;;;;;;;24.25;5.88;;;;;;;17.78;65.74;102342.00;4973257;28;20129;-44
2023/05/19 10:46:59;;;;;;;;;;;;;;;17.76;65.75;102347.16;4979262;28;20149;-44
2023/05/19 10:49:26;;;;;;;19.45;6.15;;;;;;;17.69;65.52;102344.94;4989404;28;19930;-46
2023/05/19 10:51:56;;;;;;;17.42;5.70;;;;;;;17.67;65.47;102338.88;4988884;28;20456;-44
2023/05/19 10:54:45;;;;;;;15.60;4.75;;;;;;;17.59;65.37;102340.66;4989715;28;20070;-45
2023/05/19 10:57:16;;;;;;;15.55;4.68;;;;;;;17.57;65.17;102340.22;4972524;28;20078;-50
2023/05/19 10:59:43;;;;;;;22.58;5.63;;;;;;;17.61;65.04;102352.31;4988708;28;20069;-45
2023/05/19 11:02:40;;;;;;;19.80;6.88;;;;;;;17.67;64.99;102346.47;4983820;28;20078;-46
2023/05/19 11:05:08;;;;;;;18.67;4.32;;;;;;;17.59;64.41;102340.66;4989885;28;20051;-45
2023/05/19 11:07:35;;;;;;;22.17;4.75;;;;;;;17.58;64.14;102341.00;4989438;28;20046;-45
2023/05/19 11:10:06;;;;;;;21.33;5.78;;;;;;;17.59;63.90;102346.25;4988219;28;20046;-47
2023/05/19 11:12:43;;;;;;;17.63;5.28;;;;;;;17.61;63.75;102349.53;4995500;28;20046;-45
2023/05/19 11:15:12;;;;;;;15.43;5.38;;;;;;;17.58;63.31;102341.81;4989647;28;20064;-45
2023/05/19 11:17:43;;;;;;;15.75;4.70;;;;;;;17.50;63.24;102345.53;4989920;28;20153;-46
2023/05/19 11:20:25;;;;;;;23.60;6.05;;;;;;;17.51;63.05;102347.19;4988432;28;20046;-54
2023/05/19 11:23:17;;;;;;;14.93;4.53;;;;;;;17.45;63.38;102351.38;4989785;28;20408;-45
2023/05/19 11:25:53;;;;;;;17.70;5.38;;;;;;;17.49;63.08;102355.13;4978553;28;20042;-45
2023/05/19 11:28:25;;;;;;;22.08;5.55;;;;;;;17.58;63.16;102355.81;4988930;28;20057;-48